Terminal Aerodrome Forecast
Issued by NWS Shreveport, LA

Home | Current Version | Previous Version | Text Only | Print | Product List | Glossary On
Versions: 1 2 3 4 5 6 7 8 9 10 11 12 13 14
000
FTUS44 KSHV 312300 RRA
TAFELD
TAF
KELD 312348Z 0100/0124 12007KT P6SM OVC250
     FM010600 15007KT P6SM OVC030
     FM011000 18010KT 4SM -RA BR OVC020
     FM011800 25012G18KT 5SM -TSRA BR OVC010CB=

USA.gov is the U.S. government's official web portal to all federal, state and local government web resources and services.